createdAt,value
2022-09-12T00:00:47.164Z,101343.00
2022-09-12T00:08:22.266Z,101334.91
2022-09-12T00:15:55.846Z,101336.59
2022-09-12T00:23:31.291Z,101333.81
2022-09-12T00:31:06.771Z,101340.94
2022-09-12T00:38:42.283Z,101344.41
2022-09-12T00:46:29.120Z,101338.06
2022-09-12T00:54:08.630Z,101340.69
2022-09-12T01:01:44.814Z,101336.13
2022-09-12T01:09:23.272Z,101333.34
2022-09-12T01:16:57.281Z,101329.69
2022-09-12T01:24:52.680Z,101346.66
2022-09-12T01:32:36.677Z,101339.41
2022-09-12T01:40:16.630Z,101327.66
2022-09-12T01:47:58.751Z,101331.19
2022-09-12T01:55:36.119Z,101322.13
2022-09-12T02:03:16.292Z,101328.31
2022-09-12T02:10:56.228Z,101335.38
2022-09-12T02:18:35.163Z,101330.81
2022-09-12T02:26:15.886Z,101333.41
2022-09-12T02:34:08.230Z,101327.91
2022-09-12T02:41:42.130Z,101333.16
2022-09-12T02:49:18.578Z,101329.53
2022-09-12T02:56:52.742Z,101329.41
2022-09-12T03:04:54.154Z,101329.34
2022-09-12T03:12:43.151Z,101329.28
2022-09-12T03:20:25.046Z,101329.19
2022-09-12T03:28:07.310Z,101332.69
2022-09-12T03:35:43.678Z,101329.06
2022-09-12T03:43:17.283Z,101333.38
2022-09-12T03:50:52.310Z,101339.56
2022-09-12T03:58:26.520Z,101345.75
2022-09-12T04:06:04.312Z,101354.63
2022-09-12T04:13:39.279Z,101340.25
2022-09-12T04:21:15.495Z,101347.28
2022-09-12T04:28:49.042Z,101338.28
2022-09-12T04:36:24.790Z,101353.41
2022-09-12T04:44:01.624Z,101347.03
2022-09-12T04:51:38.754Z,101347.84
2022-09-12T04:59:13.794Z,101348.72
2022-09-12T05:06:48.725Z,101347.75
2022-09-12T05:14:22.625Z,101351.31
2022-09-12T05:21:58.099Z,101355.78
2022-09-12T05:29:31.960Z,101354.06
2022-09-12T05:37:07.049Z,101354.13
2022-09-12T05:44:40.632Z,101361.38
2022-09-12T05:52:16.370Z,101360.63
2022-09-12T05:59:50.799Z,101378.72
2022-09-12T06:07:26.310Z,101378.91
2022-09-12T06:14:59.976Z,101379.22
2022-09-12T06:22:35.040Z,101381.34
2022-09-12T06:30:09.034Z,101383.44
2022-09-12T06:37:46.711Z,101398.78
2022-09-12T06:45:20.939Z,101388.28
2022-09-12T06:52:56.139Z,101389.38
2022-09-12T07:00:31.331Z,101384.09
2022-09-12T07:08:06.430Z,101374.44
2022-09-12T07:15:40.074Z,101375.47
2022-09-12T07:23:15.187Z,101381.97
2022-09-12T07:30:48.920Z,101387.56
2022-09-12T07:38:24.195Z,101371.63
2022-09-12T07:45:58.444Z,101374.53
2022-09-12T07:53:36.085Z,101376.53
2022-09-12T08:01:14.307Z,101387.59
2022-09-12T08:08:49.774Z,101394.06
2022-09-12T08:16:25.092Z,101391.44
2022-09-12T08:24:01.950Z,101390.59
2022-09-12T08:31:36.946Z,101387.00
2022-09-12T08:39:14.301Z,101381.53
2022-09-12T08:46:59.925Z,101387.78
2022-09-12T08:54:35.453Z,101374.97
2022-09-12T09:02:29.633Z,101384.03
2022-09-12T09:10:15.819Z,101377.28
2022-09-12T09:17:52.849Z,101365.28
2022-09-12T09:25:46.893Z,101367.69
2022-09-12T09:33:23.941Z,101375.63
2022-09-12T09:41:08.331Z,101363.09
2022-09-12T09:48:46.069Z,101367.69
2022-09-12T09:56:29.567Z,101362.66
2022-09-12T10:04:04.076Z,101343.41
2022-09-12T10:11:43.756Z,101349.91
2022-09-12T10:19:24.648Z,101346.28
2022-09-12T10:27:09.443Z,101346.44
2022-09-12T10:34:45.025Z,101351.06
2022-09-12T10:42:43.775Z,101340.19
2022-09-12T10:50:29.658Z,101335.66
2022-09-12T10:58:20.822Z,101333.75
2022-09-12T11:05:57.123Z,101330.91
2022-09-12T11:13:50.881Z,101329.84
2022-09-12T11:21:38.422Z,101337.00
2022-09-12T11:29:22.540Z,101324.31
2022-09-12T11:37:12.570Z,101317.09
2022-09-12T11:44:57.672Z,101318.03
2022-09-12T11:52:38.850Z,101312.50
2022-09-12T12:00:20.677Z,101310.59
2022-09-12T12:07:56.479Z,101292.38
2022-09-12T12:15:32.444Z,101295.75
2022-09-12T12:23:06.229Z,101288.44
2022-09-12T12:31:05.665Z,101276.50
2022-09-12T12:38:40.836Z,101276.59
2022-09-12T12:46:17.211Z,101279.34
2022-09-12T12:53:52.125Z,101282.88
2022-09-12T13:01:28.500Z,101283.69
2022-09-12T13:09:06.652Z,101278.28
2022-09-12T13:16:54.954Z,101264.53
2022-09-12T13:24:31.436Z,101259.09
2022-09-12T13:32:07.446Z,101253.78
2022-09-12T13:39:49.572Z,101243.88
2022-09-12T13:47:28.286Z,101229.38
2022-09-12T13:55:07.483Z,101225.72
2022-09-12T14:02:45.072Z,101222.03
2022-09-12T14:10:27.082Z,101221.13
2022-09-12T14:18:05.184Z,101219.31
2022-09-12T14:25:41.845Z,101212.06
2022-09-12T14:33:21.178Z,101208.44
2022-09-12T14:41:02.229Z,101207.53
2022-09-12T14:48:44.309Z,101197.59
2022-09-12T14:56:18.576Z,101195.84
2022-09-12T15:03:56.548Z,101175.06
2022-09-12T15:11:30.898Z,101185.13
2022-09-12T15:19:05.950Z,101183.31
2022-09-12T15:26:39.749Z,101183.38
2022-09-12T15:34:14.958Z,101169.81
2022-09-12T15:41:49.484Z,101165.31
2022-09-12T15:49:24.479Z,101161.72
2022-09-12T15:56:58.022Z,101160.97
2022-09-12T16:04:33.108Z,101164.72
2022-09-12T16:12:07.338Z,101149.41
2022-09-12T16:19:42.391Z,101146.75
2022-09-12T16:27:17.626Z,101136.94
2022-09-12T16:34:52.871Z,101133.41
2022-09-12T16:42:26.559Z,101125.47
2022-09-12T16:50:01.804Z,101119.22
2022-09-12T16:57:35.690Z,101118.41
2022-09-12T17:05:10.971Z,101105.91
2022-09-12T17:12:46.556Z,101102.47
2022-09-12T17:20:21.747Z,101096.31
2022-09-12T17:27:55.394Z,101095.56
2022-09-12T17:35:30.614Z,101093.97
2022-09-12T17:43:04.398Z,101103.13
2022-09-12T17:50:40.450Z,101109.63
2022-09-12T17:58:14.295Z,101107.97
2022-09-12T18:05:49.815Z,101110.78
2022-09-12T18:13:23.571Z,101109.16
2022-09-12T18:20:58.663Z,101102.06
2022-09-12T18:28:33.972Z,101100.44
2022-09-12T18:36:11.871Z,101094.28
2022-09-12T18:43:45.792Z,101094.31
2022-09-12T18:51:25.358Z,101094.41
2022-09-12T18:58:59.256Z,101080.06
2022-09-12T19:06:36.655Z,101077.47
2022-09-12T19:14:10.360Z,101065.88
2022-09-12T19:21:45.793Z,101061.44
2022-09-12T19:29:19.803Z,101062.38
2022-09-12T19:36:55.531Z,101062.47
2022-09-12T19:44:30.951Z,101055.28
2022-09-12T19:52:06.114Z,101063.41
2022-09-12T19:59:39.822Z,101049.97
2022-09-12T20:07:15.332Z,101041.94
2022-09-12T20:14:49.288Z,101038.34
2022-09-12T20:22:24.602Z,101032.97
2022-09-12T20:29:58.516Z,101038.38
2022-09-12T20:37:33.548Z,101029.44
2022-09-12T20:45:07.439Z,101026.69
2022-09-12T20:52:42.458Z,101025.78
2022-09-12T21:00:16.050Z,101015.03
2022-09-12T21:07:51.118Z,101019.50
2022-09-12T21:15:24.740Z,101018.59
2022-09-12T21:23:00.492Z,101015.88
2022-09-12T21:30:34.216Z,101001.56
2022-09-12T21:38:09.413Z,100995.25
2022-09-12T21:45:43.239Z,101003.28
2022-09-12T21:53:18.397Z,100991.63
2022-09-12T22:00:52.249Z,100986.25
2022-09-12T22:08:27.784Z,100969.19
2022-09-12T22:16:03.574Z,100964.69
2022-09-12T22:23:56.442Z,100953.00
2022-09-12T22:31:31.086Z,100951.19
2022-09-12T22:39:07.044Z,100945.78
2022-09-12T22:46:41.142Z,100922.47
2022-09-12T22:54:16.321Z,100909.91
2022-09-12T23:01:49.823Z,100905.41
2022-09-12T23:09:24.960Z,100894.66
2022-09-12T23:16:58.623Z,100896.44
2022-09-12T23:24:33.724Z,100894.59
2022-09-12T23:32:07.279Z,100890.13
2022-09-12T23:39:42.717Z,100885.63
2022-09-12T23:47:20.199Z,100882.03
2022-09-12T23:54:55.156Z,100872.19
